createdAt,value
2018-01-06T00:00:28.953Z,93380.02
2018-01-06T00:02:56.715Z,93376.63
2018-01-06T00:05:24.459Z,93376.23
2018-01-06T00:07:52.220Z,93372.09
2018-01-06T00:10:19.922Z,93375.87
2018-01-06T00:12:47.694Z,93385.53
2018-01-06T00:15:15.449Z,93385.47
2018-01-06T00:17:43.182Z,93388.03
2018-01-06T00:20:10.918Z,93390.50
2018-01-06T00:22:38.655Z,93383.45
2018-01-06T00:25:06.512Z,93385.87
2018-01-06T00:27:34.214Z,93384.63
2018-01-06T00:30:01.978Z,93382.12
2018-01-06T00:32:29.677Z,93387.98
2018-01-06T00:34:57.407Z,93389.59
2018-01-06T00:37:25.091Z,93385.88
2018-01-06T00:39:52.771Z,93385.15
2018-01-06T00:42:20.550Z,93382.12
2018-01-06T00:44:48.299Z,93376.63
2018-01-06T00:47:16.902Z,93384.13
2018-01-06T00:49:44.632Z,93382.12
2018-01-06T00:52:12.399Z,93385.32
2018-01-06T00:54:40.099Z,93389.86
2018-01-06T00:57:07.861Z,93388.00
2018-01-06T00:59:35.667Z,93391.75
2018-01-06T01:02:03.340Z,93395.23
2018-01-06T01:04:31.160Z,93399.56
2018-01-06T01:06:58.888Z,93402.22
2018-01-06T01:09:26.643Z,93402.89
2018-01-06T01:11:54.831Z,93407.16
2018-01-06T01:14:22.893Z,93405.27
2018-01-06T01:16:50.648Z,93415.06
2018-01-06T01:19:18.341Z,93413.72
2018-01-06T01:21:46.012Z,93413.30
2018-01-06T01:24:13.899Z,93415.73
2018-01-06T01:26:41.565Z,93416.80
2018-01-06T01:29:09.315Z,93415.64
2018-01-06T01:31:37.046Z,93417.81
2018-01-06T01:34:04.735Z,93413.48
2018-01-06T01:36:32.461Z,93406.65
2018-01-06T01:39:00.159Z,93411.19
2018-01-06T01:41:27.897Z,93411.80
2018-01-06T01:43:55.564Z,93408.97
2018-01-06T01:46:23.257Z,93411.98
2018-01-06T01:48:50.991Z,93401.86
2018-01-06T01:51:18.674Z,93403.44
2018-01-06T01:53:46.333Z,93400.52
2018-01-06T01:56:14.197Z,93411.06
2018-01-06T01:58:41.894Z,93401.48
2018-01-06T02:01:09.581Z,93397.55
2018-01-06T02:03:37.288Z,93402.63
2018-01-06T02:06:05.028Z,93399.84
2018-01-06T02:08:32.710Z,93402.20
2018-01-06T02:11:00.443Z,93399.75
2018-01-06T02:13:28.164Z,93400.15
2018-01-06T02:15:55.954Z,93395.55
2018-01-06T02:18:23.676Z,93391.23
2018-01-06T02:20:51.376Z,93388.05
2018-01-06T02:23:19.088Z,93378.77
2018-01-06T02:25:46.836Z,93380.88
2018-01-06T02:28:14.513Z,93377.10
2018-01-06T02:30:42.303Z,93373.08
2018-01-06T02:33:10.127Z,93368.98
2018-01-06T02:35:37.799Z,93375.42
2018-01-06T02:38:05.544Z,93387.13
2018-01-06T02:40:33.277Z,93387.86
2018-01-06T02:43:01.033Z,93384.84
2018-01-06T02:45:28.736Z,93392.34
2018-01-06T02:47:56.468Z,93392.58
2018-01-06T02:50:24.148Z,93392.49
2018-01-06T02:52:51.899Z,93397.05
2018-01-06T02:55:19.625Z,93396.47
2018-01-06T02:57:47.407Z,93398.38
2018-01-06T03:00:15.156Z,93393.78
2018-01-06T03:02:42.882Z,93389.75
2018-01-06T03:05:10.610Z,93393.78
2018-01-06T03:07:39.125Z,93401.86
2018-01-06T03:10:06.872Z,93392.95
2018-01-06T03:12:34.612Z,93403.83
2018-01-06T03:15:02.352Z,93395.84
2018-01-06T03:17:30.040Z,93398.47
2018-01-06T03:19:57.821Z,93398.81
2018-01-06T03:22:25.557Z,93404.23
2018-01-06T03:24:53.263Z,93408.94
2018-01-06T03:27:21.014Z,93414.67
2018-01-06T03:29:48.713Z,93411.71
2018-01-06T03:32:16.396Z,93414.27
2018-01-06T03:34:44.131Z,93409.33
2018-01-06T03:37:11.822Z,93412.08
2018-01-06T03:39:39.760Z,93409.94
2018-01-06T03:42:07.442Z,93413.30
2018-01-06T03:44:35.157Z,93407.92
2018-01-06T03:47:02.955Z,93405.00
2018-01-06T03:49:30.628Z,93405.55
2018-01-06T03:51:59.283Z,93405.55
2018-01-06T03:54:27.066Z,93405.25
2018-01-06T03:56:54.791Z,93410.34
2018-01-06T03:59:22.465Z,93405.22
2018-01-06T04:01:50.216Z,93407.16
2018-01-06T04:04:17.936Z,93408.35
2018-01-06T04:06:45.632Z,93417.95
2018-01-06T04:09:13.319Z,93422.20
2018-01-06T04:11:41.090Z,93425.67
2018-01-06T04:14:08.764Z,93426.34
2018-01-06T04:16:36.462Z,93431.73
2018-01-06T04:19:04.194Z,93433.72
2018-01-06T04:21:31.873Z,93434.70
2018-01-06T04:23:59.733Z,93441.73
2018-01-06T04:26:27.425Z,93442.56
2018-01-06T04:28:55.188Z,93444.64
2018-01-06T04:31:22.888Z,93448.97
2018-01-06T04:33:50.577Z,93450.55
2018-01-06T04:36:18.401Z,93451.66
2018-01-06T04:38:46.071Z,93449.09
2018-01-06T04:41:13.765Z,93457.75
2018-01-06T04:43:41.549Z,93455.09
2018-01-06T04:46:09.282Z,93455.41
2018-01-06T04:48:36.982Z,93456.47
2018-01-06T04:51:04.657Z,93460.22
2018-01-06T04:53:32.395Z,93455.59
2018-01-06T04:56:00.121Z,93460.13
2018-01-06T04:58:27.807Z,93464.16
2018-01-06T05:00:55.524Z,93455.89
2018-01-06T05:03:23.305Z,93466.53
2018-01-06T05:05:51.012Z,93461.63
2018-01-06T05:08:19.232Z,93462.85
2018-01-06T05:10:48.122Z,93474.20
2018-01-06T05:13:15.809Z,93471.91
2018-01-06T05:15:43.523Z,93478.67
2018-01-06T05:18:11.216Z,93468.43
2018-01-06T05:20:38.939Z,93472.94
2018-01-06T05:23:06.639Z,93477.75
2018-01-06T05:25:34.395Z,93480.41
2018-01-06T05:28:02.065Z,93473.17
2018-01-06T05:30:29.868Z,93474.88
2018-01-06T05:32:57.754Z,93473.05
2018-01-06T05:35:25.460Z,93471.91
2018-01-06T05:37:53.317Z,93470.53
2018-01-06T05:40:21.156Z,93476.33
2018-01-06T05:42:48.842Z,93476.27
2018-01-06T05:45:16.903Z,93477.42
2018-01-06T05:47:44.645Z,93484.27
2018-01-06T05:50:12.343Z,93482.13
2018-01-06T05:52:40.108Z,93483.04
2018-01-06T05:55:07.760Z,93482.84
2018-01-06T05:57:35.499Z,93482.80
2018-01-06T06:00:03.363Z,93478.48
2018-01-06T06:02:31.074Z,93487.84
2018-01-06T06:04:58.777Z,93492.45
2018-01-06T06:07:26.559Z,93488.99
2018-01-06T06:09:54.279Z,93495.22
2018-01-06T06:12:21.956Z,93494.87
2018-01-06T06:14:49.718Z,93494.20
2018-01-06T06:17:17.391Z,93492.92
2018-01-06T06:19:45.151Z,93497.08
2018-01-06T06:22:13.422Z,93504.77
2018-01-06T06:24:41.199Z,93501.36
2018-01-06T06:27:09.692Z,93506.84
2018-01-06T06:29:37.416Z,93501.23
2018-01-06T06:32:05.220Z,93500.11
2018-01-06T06:34:32.941Z,93506.91
2018-01-06T06:37:00.690Z,93509.16
2018-01-06T06:39:28.399Z,93513.17
2018-01-06T06:41:56.113Z,93514.36
2018-01-06T06:44:23.822Z,93514.45
2018-01-06T06:46:51.516Z,93515.06
2018-01-06T06:49:19.275Z,93518.20
2018-01-06T06:51:47.027Z,93517.23
2018-01-06T06:54:15.395Z,93521.30
2018-01-06T06:56:43.199Z,93516.50
2018-01-06T06:59:10.937Z,93517.64
2018-01-06T07:01:38.710Z,93515.70
2018-01-06T07:04:06.460Z,93519.84
2018-01-06T07:06:34.295Z,93518.48
2018-01-06T07:09:01.969Z,93517.73
2018-01-06T07:11:29.700Z,93528.95
2018-01-06T07:13:57.801Z,93520.73
2018-01-06T07:16:25.557Z,93515.42
2018-01-06T07:18:53.322Z,93521.34
2018-01-06T07:21:21.026Z,93518.88
2018-01-06T07:23:48.783Z,93524.30
2018-01-06T07:26:16.472Z,93524.44
2018-01-06T07:28:44.266Z,93526.20
2018-01-06T07:31:11.993Z,93533.62
2018-01-06T07:33:39.844Z,93530.09
2018-01-06T07:36:07.619Z,93535.21
2018-01-06T07:38:35.300Z,93536.94
2018-01-06T07:41:03.066Z,93541.83
2018-01-06T07:43:30.781Z,93540.38
2018-01-06T07:45:58.543Z,93547.70
2018-01-06T07:48:26.287Z,93549.66
2018-01-06T07:50:53.959Z,93553.62
2018-01-06T07:53:21.795Z,93561.53
2018-01-06T07:55:49.657Z,93566.39
2018-01-06T07:58:17.330Z,93572.44
2018-01-06T08:00:45.082Z,93563.26
2018-01-06T08:03:12.862Z,93568.51
2018-01-06T08:05:40.611Z,93567.31
2018-01-06T08:08:08.331Z,93579.19
2018-01-06T08:10:36.061Z,93571.06
2018-01-06T08:13:03.854Z,93575.38
2018-01-06T08:15:31.542Z,93579.62
2018-01-06T08:17:59.285Z,93573.00
2018-01-06T08:20:26.971Z,93567.31
2018-01-06T08:22:54.713Z,93575.56
2018-01-06T08:25:22.481Z,93574.86
2018-01-06T08:27:50.288Z,93574.98
2018-01-06T08:30:18.014Z,93572.73
2018-01-06T08:32:45.780Z,93571.06
2018-01-06T08:35:13.482Z,93576.80
2018-01-06T08:37:41.220Z,93574.05
2018-01-06T08:40:08.986Z,93573.43
2018-01-06T08:42:36.766Z,93573.88
2018-01-06T08:45:04.502Z,93588.69
2018-01-06T08:47:32.216Z,93582.82
2018-01-06T08:50:00.005Z,93576.08
2018-01-06T08:52:27.778Z,93578.91
2018-01-06T08:54:55.555Z,93580.11
2018-01-06T08:57:23.344Z,93581.88
2018-01-06T08:59:51.132Z,93582.71
2018-01-06T09:02:18.871Z,93584.13
2018-01-06T09:04:46.610Z,93596.31
2018-01-06T09:07:14.410Z,93590.31
2018-01-06T09:09:42.161Z,93590.22
2018-01-06T09:12:09.944Z,93589.25
2018-01-06T09:14:37.737Z,93590.98
2018-01-06T09:17:05.451Z,93591.33
2018-01-06T09:19:33.187Z,93590.89
2018-01-06T09:22:00.954Z,93587.84
2018-01-06T09:24:28.687Z,93593.70
2018-01-06T09:26:56.441Z,93591.10
2018-01-06T09:29:24.171Z,93587.27
2018-01-06T09:31:52.013Z,93580.06
2018-01-06T09:34:19.852Z,93582.76
2018-01-06T09:36:47.702Z,93578.08
2018-01-06T09:39:15.399Z,93573.32
2018-01-06T09:41:43.168Z,93576.50
2018-01-06T09:44:10.928Z,93576.70
2018-01-06T09:46:38.705Z,93575.53
2018-01-06T09:49:06.566Z,93562.45
2018-01-06T09:51:34.362Z,93566.60
2018-01-06T09:54:02.138Z,93565.20
2018-01-06T09:56:29.982Z,93557.33
2018-01-06T09:58:57.727Z,93554.34
2018-01-06T10:01:25.552Z,93558.61
2018-01-06T10:03:53.667Z,93556.53
2018-01-06T10:06:21.430Z,93553.89
2018-01-06T10:08:49.288Z,93547.80
2018-01-06T10:11:17.037Z,93545.81
2018-01-06T10:13:44.798Z,93543.16
2018-01-06T10:16:12.577Z,93541.11
2018-01-06T10:18:40.306Z,93532.77
2018-01-06T10:21:08.053Z,93538.03
2018-01-06T10:23:35.776Z,93531.20
2018-01-06T10:26:03.526Z,93528.75
2018-01-06T10:28:31.291Z,93526.59
2018-01-06T10:30:58.996Z,93515.34
2018-01-06T10:33:26.743Z,93518.64
2018-01-06T10:35:54.549Z,93511.20
2018-01-06T10:38:22.931Z,93509.98
2018-01-06T10:40:50.684Z,93504.72
2018-01-06T10:43:18.377Z,93500.28
2018-01-06T10:45:46.090Z,93502.16
2018-01-06T10:48:13.871Z,93506.33
2018-01-06T10:50:41.607Z,93499.98
2018-01-06T10:53:09.407Z,93499.61
2018-01-06T10:55:37.191Z,93499.11
2018-01-06T10:58:04.967Z,93497.22
2018-01-06T11:00:38.301Z,93497.22
2018-01-06T11:03:06.016Z,93494.03
2018-01-06T11:05:33.790Z,93490.28
2018-01-06T11:08:01.546Z,93492.02
2018-01-06T11:10:29.268Z,93481.00
2018-01-06T11:12:56.993Z,93480.43
2018-01-06T11:15:24.772Z,93484.77
2018-01-06T11:17:52.520Z,93483.20
2018-01-06T11:20:20.281Z,93474.47
2018-01-06T11:22:48.095Z,93473.64
2018-01-06T11:25:15.880Z,93474.18
2018-01-06T11:27:43.702Z,93472.16
2018-01-06T11:30:11.474Z,93473.69
2018-01-06T11:32:39.262Z,93468.16
2018-01-06T11:35:07.082Z,93462.41
2018-01-06T11:37:35.802Z,93469.48
2018-01-06T11:40:03.596Z,93459.81
2018-01-06T11:42:31.796Z,93460.75
2018-01-06T11:44:59.561Z,93451.66
2018-01-06T11:47:27.256Z,93456.25
2018-01-06T11:49:55.123Z,93453.91
2018-01-06T11:52:22.864Z,93457.70
2018-01-06T11:54:50.672Z,93448.43
2018-01-06T11:57:18.437Z,93449.56
2018-01-06T11:59:46.254Z,93448.43
2018-01-06T12:02:14.071Z,93448.43
2018-01-06T12:04:41.814Z,93444.92
2018-01-06T12:07:10.307Z,93447.48
2018-01-06T12:09:38.719Z,93444.47
2018-01-06T12:12:06.511Z,93444.53
2018-01-06T12:14:34.245Z,93440.34
2018-01-06T12:17:03.148Z,93436.38
2018-01-06T12:19:30.944Z,93440.87
2018-01-06T12:21:58.662Z,93440.80
2018-01-06T12:24:26.361Z,93444.43
2018-01-06T12:26:54.151Z,93437.97
2018-01-06T12:29:21.933Z,93439.07
2018-01-06T12:31:49.692Z,93438.45
2018-01-06T12:34:17.925Z,93427.75
2018-01-06T12:36:45.673Z,93433.09
2018-01-06T12:39:13.377Z,93427.72
2018-01-06T12:41:41.739Z,93425.98
2018-01-06T12:44:10.707Z,93429.30
2018-01-06T12:46:38.503Z,93427.02
2018-01-06T12:49:06.389Z,93426.87
2018-01-06T12:51:34.137Z,93432.45
2018-01-06T12:54:01.942Z,93427.25
2018-01-06T12:56:29.676Z,93426.53
2018-01-06T12:58:57.405Z,93421.86
2018-01-06T13:01:25.283Z,93435.28
2018-01-06T13:03:53.011Z,93436.86
2018-01-06T13:06:21.939Z,93433.56
2018-01-06T13:08:49.758Z,93432.63
2018-01-06T13:11:17.525Z,93428.30
2018-01-06T13:13:45.298Z,93433.02
2018-01-06T13:16:13.045Z,93433.66
2018-01-06T13:18:40.726Z,93432.56
2018-01-06T13:21:08.487Z,93433.72
2018-01-06T13:23:37.063Z,93431.95
2018-01-06T13:26:04.995Z,93437.97
2018-01-06T13:28:32.821Z,93439.73
2018-01-06T13:31:00.646Z,93444.56
2018-01-06T13:33:28.427Z,93441.98
2018-01-06T13:35:56.148Z,93442.24
2018-01-06T13:38:23.889Z,93440.62
2018-01-06T13:40:51.650Z,93442.38
2018-01-06T13:43:19.471Z,93442.94
2018-01-06T13:45:47.264Z,93446.75
2018-01-06T13:48:14.969Z,93443.14
2018-01-06T13:50:42.726Z,93446.44
2018-01-06T13:53:10.603Z,93453.94
2018-01-06T13:55:38.361Z,93454.89
2018-01-06T13:58:06.156Z,93458.47
2018-01-06T14:00:33.893Z,93462.70
2018-01-06T14:03:01.692Z,93471.58
2018-01-06T14:05:29.389Z,93468.31
2018-01-06T14:07:57.171Z,93464.67
2018-01-06T14:10:24.946Z,93471.91
2018-01-06T14:12:52.798Z,93474.64
2018-01-06T14:15:20.712Z,93469.74
2018-01-06T14:17:48.461Z,93472.64
2018-01-06T14:20:16.335Z,93470.42
2018-01-06T14:22:44.068Z,93470.56
2018-01-06T14:25:11.782Z,93474.02
2018-01-06T14:27:40.767Z,93476.39
2018-01-06T14:30:08.597Z,93473.39
2018-01-06T14:32:36.324Z,93474.05
2018-01-06T14:35:04.133Z,93477.98
2018-01-06T14:37:34.563Z,93477.58
2018-01-06T14:39:59.904Z,93478.16
2018-01-06T14:42:27.681Z,93483.06
2018-01-06T14:44:55.425Z,93487.51
2018-01-06T14:47:23.195Z,93487.95
2018-01-06T14:49:50.903Z,93480.50
2018-01-06T14:52:18.623Z,93483.77
2018-01-06T14:54:46.408Z,93487.91
2018-01-06T14:57:14.109Z,93482.88
2018-01-06T14:59:41.932Z,93485.03
2018-01-06T15:02:09.727Z,93486.36
2018-01-06T15:04:37.456Z,93493.43
2018-01-06T15:07:05.201Z,93499.64
2018-01-06T15:09:32.971Z,93490.11
2018-01-06T15:12:00.828Z,93485.97
2018-01-06T15:14:28.518Z,93495.14
2018-01-06T15:16:56.253Z,93494.64
2018-01-06T15:19:24.062Z,93492.39
2018-01-06T15:21:51.750Z,93492.89
2018-01-06T15:24:19.499Z,93495.25
2018-01-06T15:26:47.244Z,93489.17
2018-01-06T15:29:14.958Z,93499.36
2018-01-06T15:31:42.705Z,93498.23
2018-01-06T15:34:10.433Z,93498.45
2018-01-06T15:36:38.176Z,93497.73
2018-01-06T15:39:06.060Z,93495.71
2018-01-06T15:41:33.747Z,93494.52
2018-01-06T15:44:01.520Z,93503.31
2018-01-06T15:46:29.275Z,93499.69
2018-01-06T15:48:57.142Z,93499.81
2018-01-06T15:51:24.922Z,93498.09
2018-01-06T15:53:52.749Z,93502.88
2018-01-06T15:56:20.535Z,93508.66
2018-01-06T15:58:48.423Z,93510.52
2018-01-06T16:01:16.262Z,93511.67
2018-01-06T16:03:44.078Z,93513.20
2018-01-06T16:06:11.875Z,93516.83
2018-01-06T16:08:39.627Z,93527.72
2018-01-06T16:11:07.401Z,93526.52
2018-01-06T16:13:35.197Z,93532.29
2018-01-06T16:16:02.936Z,93530.70
2018-01-06T16:18:30.681Z,93543.59
2018-01-06T16:20:58.496Z,93545.80
2018-01-06T16:23:26.362Z,93546.79
2018-01-06T16:25:54.168Z,93548.34
2018-01-06T16:28:22.062Z,93552.70
2018-01-06T16:30:49.869Z,93558.59
2018-01-06T16:33:17.692Z,93559.86
2018-01-06T16:35:45.443Z,93564.39
2018-01-06T16:38:13.622Z,93566.99
2018-01-06T16:40:41.396Z,93571.59
2018-01-06T16:43:09.164Z,93569.34
2018-01-06T16:45:36.922Z,93572.48
2018-01-06T16:48:04.699Z,93578.52
2018-01-06T16:50:32.639Z,93579.14
2018-01-06T16:53:00.396Z,93583.11
2018-01-06T16:55:28.178Z,93581.16
2018-01-06T16:57:56.037Z,93584.23
2018-01-06T17:00:23.765Z,93586.70
2018-01-06T17:02:52.585Z,93591.44
2018-01-06T17:05:20.382Z,93587.52
2018-01-06T17:07:48.126Z,93600.70
2018-01-06T17:10:16.019Z,93596.69
2018-01-06T17:12:43.845Z,93599.50
2018-01-06T17:15:11.798Z,93606.84
2018-01-06T17:17:39.509Z,93602.92
2018-01-06T17:20:07.290Z,93607.53
2018-01-06T17:22:35.133Z,93609.24
2018-01-06T17:25:02.974Z,93614.55
2018-01-06T17:27:30.796Z,93614.00
2018-01-06T17:29:59.556Z,93619.20
2018-01-06T17:32:27.282Z,93620.75
2018-01-06T17:34:55.089Z,93623.73
2018-01-06T17:37:22.870Z,93623.23
2018-01-06T17:39:50.687Z,93633.02
2018-01-06T17:42:18.629Z,93630.91
2018-01-06T17:44:46.464Z,93631.66
2018-01-06T17:47:14.234Z,93638.38
2018-01-06T17:49:42.068Z,93637.73
2018-01-06T17:52:09.947Z,93642.91
2018-01-06T17:54:39.008Z,93649.66
2018-01-06T17:57:06.785Z,93648.41
2018-01-06T17:59:34.577Z,93654.74
2018-01-06T18:02:02.418Z,93652.78
2018-01-06T18:04:30.171Z,93659.55
2018-01-06T18:06:58.066Z,93655.80
2018-01-06T18:09:25.901Z,93661.69
2018-01-06T18:11:53.756Z,93662.02
2018-01-06T18:14:21.637Z,93665.69
2018-01-06T18:16:49.499Z,93672.70
2018-01-06T18:19:17.293Z,93670.55
2018-01-06T18:21:45.077Z,93676.71
2018-01-06T18:24:12.906Z,93679.95
2018-01-06T18:26:40.712Z,93683.72
2018-01-06T18:29:08.546Z,93692.88
2018-01-06T18:31:36.316Z,93696.07
2018-01-06T18:34:04.033Z,93693.24
2018-01-06T18:36:32.938Z,93706.52
2018-01-06T18:39:00.683Z,93708.48
2018-01-06T18:41:28.463Z,93705.24
2018-01-06T18:43:56.319Z,93704.84
2018-01-06T18:46:24.151Z,93709.25
2018-01-06T18:48:51.943Z,93711.27
2018-01-06T18:51:19.783Z,93712.14
2018-01-06T18:53:47.534Z,93715.33
2018-01-06T18:56:15.338Z,93720.36
2018-01-06T18:58:43.107Z,93721.09
2018-01-06T19:01:10.891Z,93721.52
2018-01-06T19:03:38.708Z,93729.03
2018-01-06T19:06:06.528Z,93729.10
2018-01-06T19:08:34.486Z,93738.05
2018-01-06T19:11:02.275Z,93733.14
2018-01-06T19:13:30.240Z,93738.13
2018-01-06T19:15:59.282Z,93737.14
2018-01-06T19:18:27.300Z,93737.81
2018-01-06T19:20:55.031Z,93737.16
2018-01-06T19:23:22.751Z,93741.95
2018-01-06T19:25:50.522Z,93742.38
2018-01-06T19:28:18.247Z,93750.70
2018-01-06T19:30:47.231Z,93754.98
2018-01-06T19:33:14.982Z,93753.55
2018-01-06T19:35:42.794Z,93757.16
2018-01-06T19:38:10.560Z,93758.73
2018-01-06T19:40:38.251Z,93758.23
2018-01-06T19:43:06.009Z,93762.10
2018-01-06T19:45:33.729Z,93768.00
2018-01-06T19:48:01.515Z,93773.22
2018-01-06T19:50:29.265Z,93779.02
2018-01-06T19:52:57.157Z,93783.17
2018-01-06T19:55:26.256Z,93779.92
2018-01-06T19:57:54.107Z,93785.39
2018-01-06T20:00:21.922Z,93793.23
2018-01-06T20:05:23.796Z,93806.84
2018-01-06T20:07:51.659Z,93805.80
2018-01-06T20:10:20.976Z,93807.34
2018-01-06T20:12:49.052Z,93810.82
2018-01-06T20:15:17.583Z,93810.95
2018-01-06T20:17:45.604Z,93813.59
2018-01-06T20:20:15.718Z,93820.37
2018-01-06T20:22:43.634Z,93823.03
2018-01-06T20:25:11.714Z,93825.39
2018-01-06T20:27:39.562Z,93823.17
2018-01-06T20:30:07.770Z,93827.81
2018-01-06T20:32:35.879Z,93834.33
2018-01-06T20:35:04.009Z,93833.64
2018-01-06T20:37:31.796Z,93834.45
2018-01-06T20:40:00.302Z,93836.20
2018-01-06T20:42:28.082Z,93835.63
2018-01-06T20:44:55.917Z,93836.84
2018-01-06T20:47:23.710Z,93844.34
2018-01-06T20:49:51.830Z,93841.30
2018-01-06T20:52:20.253Z,93849.70
2018-01-06T20:54:48.386Z,93855.94
2018-01-06T20:57:16.453Z,93856.81
2018-01-06T20:59:44.280Z,93865.84
2018-01-06T21:02:13.056Z,93868.30
2018-01-06T21:04:42.176Z,93871.67
2018-01-06T21:07:12.208Z,93875.66
2018-01-06T21:09:40.597Z,93875.17
2018-01-06T21:12:08.600Z,93879.48
2018-01-06T21:14:36.402Z,93883.23
2018-01-06T21:17:04.168Z,93883.67
2018-01-06T21:19:31.899Z,93890.42
2018-01-06T21:21:59.770Z,93891.87
2018-01-06T21:24:27.520Z,93891.95
2018-01-06T21:26:55.335Z,93893.38
2018-01-06T21:29:23.108Z,93883.73
2018-01-06T21:31:50.989Z,93891.86
2018-01-06T21:34:19.879Z,93891.04
2018-01-06T21:36:47.784Z,93887.94
2018-01-06T21:39:17.161Z,93891.44
2018-01-06T21:41:44.928Z,93890.48
2018-01-06T21:44:12.744Z,93887.60
2018-01-06T21:46:40.731Z,93885.86
2018-01-06T21:49:08.590Z,93891.59
2018-01-06T21:51:36.421Z,93895.30
2018-01-06T21:54:04.287Z,93892.52
2018-01-06T21:56:32.095Z,93898.81
2018-01-06T21:58:59.882Z,93897.69
2018-01-06T22:01:29.748Z,93902.50
2018-01-06T22:03:57.591Z,93907.93
2018-01-06T22:06:25.385Z,93909.52
2018-01-06T22:08:53.218Z,93907.53
2018-01-06T22:11:20.920Z,93911.52
2018-01-06T22:13:48.725Z,93917.59
2018-01-06T22:16:16.531Z,93917.63
2018-01-06T22:18:44.249Z,93915.47
2018-01-06T22:21:12.043Z,93924.22
2018-01-06T22:23:39.874Z,93927.22
2018-01-06T22:26:07.650Z,93929.29
2018-01-06T22:28:35.383Z,93929.05
2018-01-06T22:31:03.089Z,93934.20
2018-01-06T22:33:30.890Z,93938.44
2018-01-06T22:35:58.609Z,93929.25
2018-01-06T22:38:26.378Z,93933.80
2018-01-06T22:40:54.207Z,93934.72
2018-01-06T22:43:21.963Z,93944.78
2018-01-06T22:45:49.694Z,93944.30
2018-01-06T22:48:17.416Z,93939.64
2018-01-06T22:50:45.153Z,93940.82
2018-01-06T22:53:12.874Z,93950.20
2018-01-06T22:55:40.619Z,93955.64
2018-01-06T22:58:08.379Z,93955.34
2018-01-06T23:00:36.254Z,93956.86
2018-01-06T23:03:04.063Z,93958.61
2018-01-06T23:05:31.786Z,93955.88
2018-01-06T23:07:59.505Z,93958.45
2018-01-06T23:10:27.254Z,93954.36
2018-01-06T23:12:54.943Z,93956.99
2018-01-06T23:15:22.657Z,93959.81
2018-01-06T23:17:50.410Z,93954.78
2018-01-06T23:20:18.151Z,93946.94
2018-01-06T23:22:45.933Z,93951.88
2018-01-06T23:25:13.687Z,93956.53
2018-01-06T23:27:41.383Z,93959.09
2018-01-06T23:30:09.103Z,93962.05
2018-01-06T23:32:36.851Z,93967.08
2018-01-06T23:35:04.559Z,93965.14
2018-01-06T23:37:32.313Z,93974.95
2018-01-06T23:40:00.025Z,93966.52
2018-01-06T23:42:27.763Z,93970.19
2018-01-06T23:44:55.510Z,93975.53
2018-01-06T23:47:23.264Z,93969.95
2018-01-06T23:49:50.973Z,93977.37
2018-01-06T23:52:18.817Z,93977.05
2018-01-06T23:54:46.496Z,93976.55
2018-01-06T23:57:14.204Z,93973.77
2018-01-06T23:59:41.979Z,93975.92
